Time,TemperatureF,DewpointF,PressureIn,WindDirection,WindDirectionDegrees,WindSpeedMPH,WindSpeedGustMPH,Humidity,HourlyPrecipIn,Conditions,Clouds,dailyrainin,SolarRadiationWatts/m^2,SoftwareType,DateUTC
2013-02-18 00:06:00,38.2,6.3,29.89,SW,231,0.0,0.0,26,0.00,,,0.00,0,Wunderground v.1.15,2013-02-18 07:06:00,
2013-02-18 00:11:00,36.8,5.9,29.90,SW,231,0.0,0.0,27,0.00,,,0.00,0,Wunderground v.1.15,2013-02-18 07:11:00,
2013-02-18 00:16:00,37.8,7.6,29.89,SW,231,0.0,0.0,28,0.00,,,0.00,0,Wunderground v.1.15,2013-02-18 07:16:00,
2013-02-18 00:26:00,37.8,7.6,29.89,SW,231,0.0,0.0,28,0.00,,,0.00,0,Wunderground v.1.15,2013-02-18 07:26:00,
2013-02-18 00:36:00,37.7,7.5,29.89,SW,231,0.0,0.0,28,0.00,,,0.00,0,Wunderground v.1.15,2013-02-18 07:36:00,
2013-02-18 00:46:00,37.8,5.9,29.89,SW,231,0.0,0.0,26,0.00,,,0.00,0,Wunderground v.1.15,2013-02-18 07:46:00,
2013-02-18 00:51:00,38.0,6.1,29.89,SW,231,0.0,0.0,26,0.00,,,0.00,0,Wunderground v.1.15,2013-02-18 07:51:00,
2013-02-18 01:01:00,35.4,4.7,29.90,SW,231,0.0,0.0,27,0.00,,,0.00,0,Wunderground v.1.15,2013-02-18 08:01:00,
2013-02-18 01:06:00,34.7,5.6,29.91,SW,231,0.0,0.0,29,0.00,,,0.00,0,Wunderground v.1.15,2013-02-18 08:06:00,
2013-02-18 01:16:00,35.6,6.4,29.90,SW,231,0.0,0.0,29,0.00,,,0.00,0,Wunderground v.1.15,2013-02-18 08:16:00,
2013-02-18 01:26:00,34.4,5.4,29.91,SW,231,0.0,0.0,29,0.00,,,0.00,0,Wunderground v.1.15,2013-02-18 08:26:00,
2013-02-18 01:36:00,32.8,6.1,29.92,SW,231,0.0,0.0,32,0.00,,,0.00,0,Wunderground v.1.15,2013-02-18 08:36:00,
2013-02-18 01:41:00,33.3,6.6,29.92,SW,231,0.0,0.0,32,0.00,,,0.00,0,Wunderground v.1.15,2013-02-18 08:41:00,
2013-02-18 01:51:00,34.8,7.2,29.91,SW,231,0.0,0.0,31,0.00,,,0.00,0,Wunderground v.1.15,2013-02-18 08:51:00,
2013-02-18 02:01:00,32.5,5.9,29.94,SW,231,0.0,0.0,32,0.00,,,0.00,0,Wunderground v.1.15,2013-02-18 09:01:00,
2013-02-18 02:06:00,34.8,7.9,29.93,SW,231,0.0,0.0,32,0.00,,,0.00,0,Wunderground v.1.15,2013-02-18 09:06:00,
2013-02-18 02:11:00,38.0,7.7,29.91,SW,231,0.0,0.0,28,0.00,,,0.00,0,Wunderground v.1.15,2013-02-18 09:11:00,
2013-02-18 02:21:00,37.5,8.1,29.92,SW,231,0.0,0.0,29,0.00,,,0.00,0,Wunderground v.1.15,2013-02-18 09:21:00,
2013-02-18 02:31:00,38.2,7.9,29.92,SW,231,0.0,0.0,28,0.00,,,0.00,0,Wunderground v.1.15,2013-02-18 09:31:00,
2013-02-18 02:36:00,37.9,8.4,29.92,SW,231,0.0,0.0,29,0.00,,,0.00,0,Wunderground v.1.15,2013-02-18 09:36:00,
2013-02-18 02:41:00,35.3,7.6,29.94,SW,231,0.0,0.0,31,0.00,,,0.00,0,Wunderground v.1.15,2013-02-18 09:41:00,
2013-02-18 02:46:00,36.1,9.0,29.93,SW,231,0.0,0.0,32,0.00,,,0.00,0,Wunderground v.1.15,2013-02-18 09:46:00,
2013-02-18 02:56:00,37.6,8.2,29.92,SW,231,0.0,0.0,29,0.00,,,0.00,0,Wunderground v.1.15,2013-02-18 09:56:00,
2013-02-18 03:01:00,36.2,8.4,29.94,SW,231,0.0,0.0,31,0.00,,,0.00,0,Wunderground v.1.15,2013-02-18 10:01:00,
2013-02-18 03:11:00,35.3,8.3,29.95,SW,231,0.0,0.0,32,0.00,,,0.00,0,Wunderground v.1.15,2013-02-18 10:11:00,
2013-02-18 03:16:00,35.0,8.1,29.95,SW,231,0.0,0.0,32,0.00,,,0.00,0,Wunderground v.1.15,2013-02-18 10:16:00,
2013-02-18 03:21:00,34.8,8.6,29.95,SW,231,0.0,0.0,33,0.00,,,0.00,0,Wunderground v.1.15,2013-02-18 10:21:00,
2013-02-18 03:26:00,35.2,8.2,29.95,SW,231,0.0,0.0,32,0.00,,,0.00,0,Wunderground v.1.15,2013-02-18 10:26:00,
2013-02-18 03:31:00,35.1,8.8,29.95,SW,231,0.0,0.0,33,0.00,,,0.00,0,Wunderground v.1.15,2013-02-18 10:31:00,
2013-02-18 03:41:00,32.5,7.2,29.97,SW,231,0.0,0.0,34,0.00,,,0.00,0,Wunderground v.1.15,2013-02-18 10:41:00,
2013-02-18 03:46:00,31.9,7.9,29.96,SW,231,0.0,0.0,36,0.00,,,0.00,0,Wunderground v.1.15,2013-02-18 10:46:00,
2013-02-18 03:51:00,31.3,8.0,29.97,SW,231,0.0,0.0,37,0.00,,,0.00,0,Wunderground v.1.15,2013-02-18 10:51:00,
2013-02-18 04:01:00,31.6,7.7,29.97,SW,231,0.0,0.0,36,0.00,,,0.00,0,Wunderground v.1.15,2013-02-18 11:01:00,
2013-02-18 04:06:00,31.1,8.4,29.98,SW,231,0.0,0.0,38,0.00,,,0.00,0,Wunderground v.1.15,2013-02-18 11:06:00,
2013-02-18 04:11:00,31.1,8.4,29.99,SW,231,0.0,0.0,38,0.00,,,0.00,0,Wunderground v.1.15,2013-02-18 11:11:00,
2013-02-18 04:21:00,29.5,8.1,29.99,SW,231,0.0,0.0,40,0.00,,,0.00,0,Wunderground v.1.15,2013-02-18 11:21:00,
2013-02-18 04:26:00,29.6,8.2,29.99,SW,231,0.0,0.0,40,0.00,,,0.00,0,Wunderground v.1.15,2013-02-18 11:26:00,
2013-02-18 04:31:00,27.5,6.3,30.00,SW,231,0.0,0.0,40,0.00,,,0.00,0,Wunderground v.1.15,2013-02-18 11:31:00,
2013-02-18 04:41:00,26.3,6.8,30.01,SW,231,0.0,0.0,43,0.00,,,0.00,0,Wunderground v.1.15,2013-02-18 11:41:00,
2013-02-18 04:51:00,26.4,6.9,30.02,SW,231,0.0,0.0,43,0.00,,,0.00,0,Wunderground v.1.15,2013-02-18 11:51:00,
2013-02-18 05:01:00,28.0,9.9,30.03,SW,231,1.0,1.0,46,0.00,,,0.00,0,Wunderground v.1.15,2013-02-18 12:01:00,
2013-02-18 05:11:00,31.7,10.7,30.02,SW,231,1.0,1.0,41,0.00,,,0.00,0,Wunderground v.1.15,2013-02-18 12:11:00,
2013-02-18 05:21:00,32.7,11.6,30.01,SW,231,2.0,3.0,41,0.00,,,0.00,0,Wunderground v.1.15,2013-02-18 12:21:00,
2013-02-18 05:26:00,34.0,11.6,30.01,SW,228,4.0,4.0,39,0.00,,,0.00,0,Wunderground v.1.15,2013-02-18 12:26:00,
2013-02-18 05:31:00,34.0,11.6,30.01,SW,228,4.0,4.0,39,0.00,,,0.00,0,Wunderground v.1.15,2013-02-18 12:31:00,
2013-02-18 05:36:00,33.2,10.9,30.01,SW,228,2.0,4.0,39,0.00,,,0.00,0,Wunderground v.1.15,2013-02-18 12:36:00,
2013-02-18 05:41:00,32.1,11.0,30.03,SW,228,0.0,0.0,41,0.00,,,0.00,0,Wunderground v.1.15,2013-02-18 12:41:00,
2013-02-18 05:46:00,32.9,11.2,30.01,SW,228,0.0,2.0,40,0.00,,,0.00,0,Wunderground v.1.15,2013-02-18 12:46:00,
2013-02-18 05:56:00,33.0,10.7,30.02,SW,228,0.0,1.0,39,0.00,,,0.00,0,Wunderground v.1.15,2013-02-18 12:56:00,
2013-02-18 06:06:00,32.6,10.9,30.04,SW,228,1.0,1.0,40,0.00,,,0.00,0,Wunderground v.1.15,2013-02-18 13:06:00,
2013-02-18 06:16:00,31.6,11.1,30.04,SW,228,0.0,0.0,42,0.00,,,0.00,0,Wunderground v.1.15,2013-02-18 13:16:00,
2013-02-18 06:21:00,31.7,11.2,30.05,SW,228,0.0,1.0,42,0.00,,,0.00,0,Wunderground v.1.15,2013-02-18 13:21:00,
2013-02-18 06:31:00,32.1,11.0,30.05,SW,228,0.0,0.0,41,0.00,,,0.00,0,Wunderground v.1.15,2013-02-18 13:31:00,
2013-02-18 06:36:00,31.1,10.1,30.06,SW,228,0.0,0.0,41,0.00,,,0.00,0,Wunderground v.1.15,2013-02-18 13:36:00,
2013-02-18 06:41:00,30.1,9.7,30.06,SW,228,0.0,0.0,42,0.00,,,0.00,0,Wunderground v.1.15,2013-02-18 13:41:00,
2013-02-18 06:51:00,29.7,10.9,30.06,SW,228,1.0,1.0,45,0.00,,,0.00,0,Wunderground v.1.15,2013-02-18 13:51:00,
2013-02-18 06:56:00,29.8,11.0,30.07,SW,228,0.0,1.0,45,0.00,,,0.00,5,Wunderground v.1.15,2013-02-18 13:56:00,
2013-02-18 07:06:00,29.8,11.0,30.09,SW,228,0.0,0.0,45,0.00,,,0.00,11,Wunderground v.1.15,2013-02-18 14:06:00,
2013-02-18 07:11:00,29.7,10.9,30.09,SW,228,0.0,0.0,45,0.00,,,0.00,18,Wunderground v.1.15,2013-02-18 14:11:00,
2013-02-18 07:16:00,29.7,10.9,30.08,SW,228,0.0,0.0,45,0.00,,,0.00,30,Wunderground v.1.15,2013-02-18 14:16:00,
2013-02-18 07:26:00,30.8,11.9,30.09,SW,228,0.0,0.0,45,0.00,,,0.00,35,Wunderground v.1.15,2013-02-18 14:26:00,
2013-02-18 07:36:00,31.6,12.7,30.09,SW,228,0.0,0.0,45,0.00,,,0.00,60,Wunderground v.1.15,2013-02-18 14:36:00,
2013-02-18 07:41:00,31.7,13.3,30.09,SW,228,0.0,2.0,46,0.00,,,0.00,95,Wunderground v.1.15,2013-02-18 14:41:00,
2013-02-18 07:51:00,33.5,14.4,30.09,SW,228,0.0,0.0,45,0.00,,,0.00,102,Wunderground v.1.15,2013-02-18 14:51:00,
2013-02-18 08:01:00,34.9,14.1,30.08,SW,228,0.0,0.0,42,0.00,,,0.00,135,Wunderground v.1.15,2013-02-18 15:01:00,
2013-02-18 08:06:00,35.5,14.6,30.08,SW,228,0.0,0.0,42,0.00,,,0.00,130,Wunderground v.1.15,2013-02-18 15:06:00,
2013-02-18 08:11:00,36.1,14.6,30.08,SW,228,0.0,0.0,41,0.00,,,0.00,162,Wunderground v.1.15,2013-02-18 15:11:00,
2013-02-18 08:16:00,37.1,15.0,30.08,SW,228,0.0,0.0,40,0.00,,,0.00,220,Wunderground v.1.15,2013-02-18 15:16:00,
2013-02-18 08:21:00,38.3,14.9,30.07,SW,228,1.0,1.0,38,0.00,,,0.00,302,Wunderground v.1.15,2013-02-18 15:21:00,
2013-02-18 08:31:00,40.5,15.0,30.06,SW,227,0.0,0.0,35,0.00,,,0.00,232,Wunderground v.1.15,2013-02-18 15:31:00,
2013-02-18 08:41:00,43.0,15.8,30.05,SW,226,1.0,1.0,33,0.00,,,0.00,334,Wunderground v.1.15,2013-02-18 15:41:00,
2013-02-18 08:46:00,44.9,16.0,30.04,SW,226,0.0,1.0,31,0.00,,,0.00,378,Wunderground v.1.15,2013-02-18 15:46:00,
2013-02-18 08:51:00,46.6,16.0,30.03,SW,216,0.0,0.0,29,0.00,,,0.00,390,Wunderground v.1.15,2013-02-18 15:51:00,
2013-02-18 08:56:00,47.8,15.4,30.02,SSW,209,1.0,1.0,27,0.00,,,0.00,388,Wunderground v.1.15,2013-02-18 15:56:00,
2013-02-18 09:06:00,48.9,15.5,30.06,SSW,204,1.0,1.0,26,0.00,,,0.00,420,Wunderground v.1.15,2013-02-18 16:06:00,
2013-02-18 09:16:00,51.3,15.7,30.05,SSW,201,1.0,1.0,24,0.00,,,0.00,504,Wunderground v.1.15,2013-02-18 16:16:00,
2013-02-18 09:26:00,53.3,14.3,30.04,SSW,193,2.0,4.0,21,0.00,,,0.00,508,Wunderground v.1.15,2013-02-18 16:26:00,
2013-02-18 09:31:00,54.3,14.0,30.04,South,174,3.0,3.0,20,0.00,,,0.00,501,Wunderground v.1.15,2013-02-18 16:31:00,
2013-02-18 09:36:00,54.5,14.2,30.03,South,173,5.0,5.0,20,0.00,,,0.00,478,Wunderground v.1.15,2013-02-18 16:36:00,
2013-02-18 09:46:00,54.9,13.3,30.03,SSE,152,6.0,6.0,19,0.00,,,0.00,480,Wunderground v.1.15,2013-02-18 16:46:00,
2013-02-18 09:56:00,56.0,13.0,30.03,South,170,6.0,10.0,18,0.00,,,0.00,589,Wunderground v.1.15,2013-02-18 16:56:00,
2013-02-18 10:01:00,56.9,13.8,30.00,SSE,167,6.0,6.0,18,0.00,,,0.00,501,Wunderground v.1.15,2013-02-18 17:01:00,
2013-02-18 10:06:00,57.0,12.5,30.00,SSE,165,7.0,7.0,17,0.00,,,0.00,582,Wunderground v.1.15,2013-02-18 17:06:00,
2013-02-18 10:16:00,57.4,11.5,30.00,South,178,6.0,11.0,16,0.00,,,0.00,575,Wunderground v.1.15,2013-02-18 17:16:00,
2013-02-18 10:21:00,58.1,12.1,30.00,South,170,7.0,7.0,16,0.00,,,0.00,700,Wunderground v.1.15,2013-02-18 17:21:00,
2013-02-18 10:26:00,58.6,12.5,29.99,South,173,7.0,10.0,16,0.00,,,0.00,742,Wunderground v.1.15,2013-02-18 17:26:00,
2013-02-18 10:36:00,59.8,13.4,29.99,South,176,8.0,8.0,16,0.00,,,0.00,691,Wunderground v.1.15,2013-02-18 17:36:00,
2013-02-18 10:46:00,59.0,12.8,29.98,SSE,165,8.0,12.0,16,0.00,,,0.00,640,Wunderground v.1.15,2013-02-18 17:46:00,
2013-02-18 10:56:00,60.1,13.7,29.98,South,170,8.0,11.0,16,0.00,,,0.00,782,Wunderground v.1.15,2013-02-18 17:56:00,
2013-02-18 11:06:00,60.8,12.8,30.02,South,186,8.0,8.0,15,0.00,,,0.00,817,Wunderground v.1.15,2013-02-18 18:06:00,
2013-02-18 11:11:00,61.4,13.3,30.02,South,169,8.0,8.0,15,0.00,,,0.00,684,Wunderground v.1.15,2013-02-18 18:11:00,
2013-02-18 11:16:00,61.7,13.5,30.02,South,185,8.0,8.0,15,0.00,,,0.00,612,Wunderground v.1.15,2013-02-18 18:16:00,
2013-02-18 11:26:00,61.8,12.0,30.01,SSE,162,9.0,9.0,14,0.00,,,0.00,768,Wunderground v.1.15,2013-02-18 18:26:00,
2013-02-18 11:31:00,62.4,12.5,30.01,SSW,193,8.0,10.0,14,0.00,,,0.00,687,Wunderground v.1.15,2013-02-18 18:31:00,
2013-02-18 11:36:00,62.3,12.4,30.01,SSW,210,8.0,12.0,14,0.00,,,0.00,642,Wunderground v.1.15,2013-02-18 18:36:00,
2013-02-18 11:41:00,62.3,12.4,30.01,South,179,9.0,11.0,14,0.00,,,0.00,689,Wunderground v.1.15,2013-02-18 18:41:00,
2013-02-18 11:51:00,62.4,12.5,30.00,SE,140,7.0,7.0,14,0.00,,,0.00,629,Wunderground v.1.15,2013-02-18 18:51:00,
2013-02-18 11:56:00,62.2,12.3,30.00,South,188,8.0,14.0,14,0.00,,,0.00,666,Wunderground v.1.15,2013-02-18 18:56:00,
2013-02-18 12:01:00,62.5,12.6,30.01,South,175,9.0,15.0,14,0.00,,,0.00,712,Wunderground v.1.15,2013-02-18 19:01:00,
2013-02-18 12:06:00,62.8,12.8,30.01,South,182,10.0,15.0,14,0.00,,,0.00,606,Wunderground v.1.15,2013-02-18 19:06:00,
2013-02-18 12:16:00,63.1,11.4,30.00,SSW,201,8.0,11.0,13,0.00,,,0.00,555,Wunderground v.1.15,2013-02-18 19:16:00,
2013-02-18 12:26:00,63.8,11.9,29.99,SSW,193,9.0,9.0,13,0.00,,,0.00,770,Wunderground v.1.15,2013-02-18 19:26:00,
2013-02-18 12:31:00,64.0,12.1,29.99,SW,224,10.0,10.0,13,0.00,,,0.00,698,Wunderground v.1.15,2013-02-18 19:31:00,
2013-02-18 12:36:00,64.1,12.2,29.98,SSW,201,9.0,10.0,13,0.00,,,0.00,742,Wunderground v.1.15,2013-02-18 19:36:00,
2013-02-18 12:41:00,64.1,12.2,29.97,SSW,193,9.0,9.0,13,0.00,,,0.00,840,Wunderground v.1.15,2013-02-18 19:41:00,
2013-02-18 12:46:00,64.7,10.8,29.97,South,180,9.0,11.0,12,0.00,,,0.00,552,Wunderground v.1.15,2013-02-18 19:46:00,
2013-02-18 12:51:00,63.9,10.2,29.97,SW,224,10.0,10.0,12,0.00,,,0.00,599,Wunderground v.1.15,2013-02-18 19:51:00,
2013-02-18 12:56:00,64.3,12.3,29.97,SSW,207,9.0,10.0,13,0.00,,,0.00,744,Wunderground v.1.15,2013-02-18 19:56:00,
2013-02-18 13:06:00,64.8,10.9,29.97,South,183,7.0,7.0,12,0.00,,,0.00,677,Wunderground v.1.15,2013-02-18 20:06:00,
2013-02-18 13:11:00,64.5,10.7,29.97,South,178,7.0,7.0,12,0.00,,,0.00,684,Wunderground v.1.15,2013-02-18 20:11:00,
2013-02-18 13:16:00,65.0,11.1,29.97,South,178,7.0,7.0,12,0.00,,,0.00,629,Wunderground v.1.15,2013-02-18 20:16:00,
2013-02-18 13:21:00,65.5,11.5,29.96,South,180,7.0,7.0,12,0.00,,,0.00,643,Wunderground v.1.15,2013-02-18 20:21:00,
2013-02-18 13:31:00,65.6,11.5,29.95,SSW,196,5.0,5.0,12,0.00,,,0.00,642,Wunderground v.1.15,2013-02-18 20:31:00,
2013-02-18 13:36:00,65.4,11.4,29.95,SSE,168,3.0,5.0,12,0.00,,,0.00,587,Wunderground v.1.15,2013-02-18 20:36:00,
2013-02-18 13:41:00,64.9,9.0,29.94,ESE,123,3.0,4.0,11,0.00,,,0.00,608,Wunderground v.1.15,2013-02-18 20:41:00,
2013-02-18 13:46:00,65.9,9.8,29.94,SSE,166,4.0,4.0,11,0.00,,,0.00,636,Wunderground v.1.15,2013-02-18 20:46:00,
2013-02-18 13:56:00,66.5,8.2,29.92,SSE,161,5.0,5.0,10,0.00,,,0.00,733,Wunderground v.1.15,2013-02-18 20:56:00,
2013-02-18 14:01:00,66.4,10.2,29.91,South,176,4.0,4.0,11,0.00,,,0.00,640,Wunderground v.1.15,2013-02-18 21:01:00,
2013-02-18 14:06:00,67.0,6.2,29.91,SSW,192,4.0,10.0,9,0.00,,,0.00,707,Wunderground v.1.15,2013-02-18 21:06:00,
2013-02-18 14:11:00,67.2,3.8,29.90,SSW,193,6.0,6.0,8,0.00,,,0.00,624,Wunderground v.1.15,2013-02-18 21:11:00,
2013-02-18 14:21:00,66.7,3.4,29.90,SSW,201,11.0,11.0,8,0.00,,,0.00,585,Wunderground v.1.15,2013-02-18 21:21:00,
2013-02-18 14:31:00,66.3,5.7,29.90,SW,216,9.0,9.0,9,0.00,,,0.00,454,Wunderground v.1.15,2013-02-18 21:31:00,
2013-02-18 14:36:00,66.2,5.6,29.90,South,180,9.0,9.0,9,0.00,,,0.00,455,Wunderground v.1.15,2013-02-18 21:36:00,
2013-02-18 14:41:00,66.0,5.5,29.90,South,187,9.0,9.0,9,0.00,,,0.00,420,Wunderground v.1.15,2013-02-18 21:41:00,
2013-02-18 14:46:00,66.0,5.5,29.90,SSW,196,8.0,9.0,9,0.00,,,0.00,436,Wunderground v.1.15,2013-02-18 21:46:00,
2013-02-18 14:51:00,66.1,5.5,29.90,SSW,194,9.0,9.0,9,0.00,,,0.00,413,Wunderground v.1.15,2013-02-18 21:51:00,
2013-02-18 15:01:00,66.2,7.9,29.91,SSW,205,9.0,11.0,10,0.00,,,0.00,401,Wunderground v.1.15,2013-02-18 22:01:00,
2013-02-18 15:11:00,66.3,5.7,29.91,SSW,209,9.0,11.0,9,0.00,,,0.00,387,Wunderground v.1.15,2013-02-18 22:11:00,
2013-02-18 15:16:00,65.9,5.4,29.91,SSW,201,9.0,11.0,9,0.00,,,0.00,318,Wunderground v.1.15,2013-02-18 22:16:00,
2013-02-18 15:21:00,66.0,2.9,29.91,SW,214,8.0,12.0,8,0.00,,,0.00,339,Wunderground v.1.15,2013-02-18 22:21:00,
2013-02-18 15:26:00,65.6,2.6,29.91,South,189,10.0,12.0,8,0.00,,,0.00,322,Wunderground v.1.15,2013-02-18 22:26:00,
2013-02-18 15:31:00,65.6,2.6,29.91,SSW,199,11.0,11.0,8,0.00,,,0.00,295,Wunderground v.1.15,2013-02-18 22:31:00,
2013-02-18 15:41:00,65.2,2.3,29.92,South,183,9.0,9.0,8,0.00,,,0.00,264,Wunderground v.1.15,2013-02-18 22:41:00,
2013-02-18 15:51:00,65.1,2.2,29.92,SSW,205,9.0,9.0,8,0.00,,,0.00,230,Wunderground v.1.15,2013-02-18 22:51:00,
2013-02-18 15:56:00,65.0,2.1,29.92,SSW,201,9.0,12.0,8,0.00,,,0.00,225,Wunderground v.1.15,2013-02-18 22:56:00,
2013-02-18 16:06:00,64.8,2.0,29.94,SSW,200,10.0,12.0,8,0.00,,,0.00,204,Wunderground v.1.15,2013-02-18 23:06:00,
2013-02-18 16:16:00,64.4,4.2,29.95,SSW,213,9.0,10.0,9,0.00,,,0.00,193,Wunderground v.1.15,2013-02-18 23:16:00,
2013-02-18 16:26:00,63.9,1.3,29.95,SSW,195,11.0,11.0,8,0.00,,,0.00,142,Wunderground v.1.15,2013-02-18 23:26:00,
2013-02-18 16:31:00,63.7,1.2,29.95,SSW,203,10.0,10.0,8,0.00,,,0.00,142,Wunderground v.1.15,2013-02-18 23:31:00,
2013-02-18 16:36:00,63.6,3.6,29.95,SSW,213,9.0,10.0,9,0.00,,,0.00,172,Wunderground v.1.15,2013-02-18 23:36:00,
2013-02-18 16:41:00,63.6,1.1,29.96,SSW,198,9.0,10.0,8,0.00,,,0.00,135,Wunderground v.1.15,2013-02-18 23:41:00,
2013-02-18 16:46:00,63.3,0.9,29.96,SW,214,9.0,12.0,8,0.00,,,0.00,141,Wunderground v.1.15,2013-02-18 23:46:00,
2013-02-18 16:56:00,63.1,3.3,29.96,SW,214,8.0,9.0,9,0.00,,,0.00,132,Wunderground v.1.15,2013-02-18 23:56:00,
2013-02-18 17:06:00,62.5,0.3,29.93,SSW,205,8.0,10.0,8,0.00,,,0.00,102,Wunderground v.1.15,2013-02-19 00:06:00,
2013-02-18 17:16:00,62.2,2.6,29.93,SSW,211,6.0,7.0,9,0.00,,,0.00,93,Wunderground v.1.15,2013-02-19 00:16:00,
2013-02-18 17:21:00,62.1,2.5,29.94,SSW,212,6.0,6.0,9,0.00,,,0.00,102,Wunderground v.1.15,2013-02-19 00:21:00,
2013-02-18 17:31:00,62.1,4.8,29.94,SW,218,6.0,6.0,10,0.00,,,0.00,79,Wunderground v.1.15,2013-02-19 00:31:00,
2013-02-18 17:36:00,61.8,4.5,29.94,SW,218,5.0,6.0,10,0.00,,,0.00,69,Wunderground v.1.15,2013-02-19 00:36:00,
2013-02-18 17:46:00,61.2,6.2,29.94,SW,216,3.0,4.0,11,0.00,,,0.00,46,Wunderground v.1.15,2013-02-19 00:46:00,
2013-02-18 17:56:00,60.7,5.8,29.93,SW,216,1.0,2.0,11,0.00,,,0.00,18,Wunderground v.1.15,2013-02-19 00:56:00,
2013-02-18 18:06:00,59.5,6.8,29.95,SW,216,0.0,0.0,12,0.00,,,0.00,5,Wunderground v.1.15,2013-02-19 01:06:00,
2013-02-18 18:16:00,58.2,5.7,29.97,SW,216,0.0,0.0,12,0.00,,,0.00,0,Wunderground v.1.15,2013-02-19 01:16:00,
2013-02-18 18:26:00,57.6,7.0,29.96,SW,216,0.0,0.0,13,0.00,,,0.00,0,Wunderground v.1.15,2013-02-19 01:26:00,
2013-02-18 18:36:00,57.8,7.2,29.96,SW,216,0.0,0.0,13,0.00,,,0.00,0,Wunderground v.1.15,2013-02-19 01:36:00,
2013-02-18 18:46:00,57.3,8.4,29.97,SW,216,0.0,2.0,14,0.00,,,0.00,0,Wunderground v.1.15,2013-02-19 01:46:00,
2013-02-18 18:56:00,55.4,8.4,29.98,SW,216,0.0,0.0,15,0.00,,,0.00,0,Wunderground v.1.15,2013-02-19 01:56:00,
2013-02-18 19:06:00,55.0,8.1,29.96,SW,216,0.0,0.0,15,0.00,,,0.00,0,Wunderground v.1.15,2013-02-19 02:06:00,
2013-02-18 19:11:00,54.9,8.0,29.97,SW,216,0.0,0.0,15,0.00,,,0.00,0,Wunderground v.1.15,2013-02-19 02:11:00,
2013-02-18 19:26:00,53.9,8.7,29.97,SW,216,0.0,0.0,16,0.00,,,0.00,0,Wunderground v.1.15,2013-02-19 02:26:00,
2013-02-18 19:31:00,53.5,8.3,29.98,SW,216,0.0,0.0,16,0.00,,,0.00,0,Wunderground v.1.15,2013-02-19 02:31:00,
2013-02-18 19:41:00,50.5,8.5,29.99,SW,216,0.0,0.0,18,0.00,,,0.00,0,Wunderground v.1.15,2013-02-19 02:41:00,
2013-02-18 19:51:00,49.8,9.1,30.00,SW,216,0.0,0.0,19,0.00,,,0.00,0,Wunderground v.1.15,2013-02-19 02:51:00,
2013-02-18 19:56:00,51.0,8.9,29.99,SW,216,0.0,0.0,18,0.00,,,0.00,0,Wunderground v.1.15,2013-02-19 02:56:00,
2013-02-18 20:01:00,51.0,8.9,29.92,SW,216,0.0,0.0,18,0.00,,,0.00,0,Wunderground v.1.15,2013-02-19 03:01:00,
2013-02-18 20:11:00,51.3,10.4,29.92,SW,216,0.0,0.0,19,0.00,,,0.00,0,Wunderground v.1.15,2013-02-19 03:11:00,
2013-02-18 20:16:00,50.5,9.7,29.93,SW,216,0.0,0.0,19,0.00,,,0.00,0,Wunderground v.1.15,2013-02-19 03:16:00,
2013-02-18 20:21:00,49.1,9.7,29.94,SW,216,0.0,0.0,20,0.00,,,0.00,0,Wunderground v.1.15,2013-02-19 03:21:00,
2013-02-18 20:26:00,48.5,10.3,29.94,SW,216,0.0,0.0,21,0.00,,,0.00,0,Wunderground v.1.15,2013-02-19 03:26:00,
2013-02-18 20:31:00,48.7,10.4,29.93,SW,216,0.0,0.0,21,0.00,,,0.00,0,Wunderground v.1.15,2013-02-19 03:31:00,
2013-02-18 20:36:00,46.6,8.7,29.94,SW,216,0.0,0.0,21,0.00,,,0.00,0,Wunderground v.1.15,2013-02-19 03:36:00,
2013-02-18 20:46:00,47.7,10.6,29.94,SW,216,0.0,0.0,22,0.00,,,0.00,0,Wunderground v.1.15,2013-02-19 03:46:00,
2013-02-18 20:51:00,49.1,11.8,29.93,SW,216,0.0,0.0,22,0.00,,,0.00,0,Wunderground v.1.15,2013-02-19 03:51:00,
2013-02-18 20:56:00,49.4,11.0,29.93,SW,216,0.0,4.0,21,0.00,,,0.00,0,Wunderground v.1.15,2013-02-19 03:56:00,
2013-02-18 21:01:00,49.2,10.9,29.90,SW,216,0.0,0.0,21,0.00,,,0.00,0,Wunderground v.1.15,2013-02-19 04:01:00,
2013-02-18 21:11:00,48.3,11.2,29.91,SW,216,0.0,0.0,22,0.00,,,0.00,0,Wunderground v.1.15,2013-02-19 04:11:00,
2013-02-18 21:16:00,48.1,11.0,29.90,SW,216,0.0,0.0,22,0.00,,,0.00,0,Wunderground v.1.15,2013-02-19 04:16:00,
2013-02-18 21:26:00,47.6,11.6,29.91,SW,216,0.0,0.0,23,0.00,,,0.00,0,Wunderground v.1.15,2013-02-19 04:26:00,
2013-02-18 21:36:00,48.3,11.2,29.92,SW,215,0.0,0.0,22,0.00,,,0.00,0,Wunderground v.1.15,2013-02-19 04:36:00,
2013-02-18 21:41:00,48.6,11.4,29.91,SW,216,0.0,0.0,22,0.00,,,0.00,0,Wunderground v.1.15,2013-02-19 04:41:00,
2013-02-18 21:46:00,48.6,11.4,29.91,SW,215,0.0,0.0,22,0.00,,,0.00,0,Wunderground v.1.15,2013-02-19 04:46:00,
2013-02-18 21:51:00,48.6,11.4,29.90,SSW,207,0.0,0.0,22,0.00,,,0.00,0,Wunderground v.1.15,2013-02-19 04:51:00,
2013-02-18 21:56:00,48.3,11.2,29.91,South,187,1.0,1.0,22,0.00,,,0.00,0,Wunderground v.1.15,2013-02-19 04:56:00,
2013-02-18 22:01:00,48.1,12.0,29.89,South,182,1.0,1.0,23,0.00,,,0.00,0,Wunderground v.1.15,2013-02-19 05:01:00,
2013-02-18 22:06:00,47.6,11.6,29.89,South,180,1.0,1.0,23,0.00,,,0.00,0,Wunderground v.1.15,2013-02-19 05:06:00,
2013-02-18 22:11:00,47.5,11.5,29.89,South,180,0.0,0.0,23,0.00,,,0.00,0,Wunderground v.1.15,2013-02-19 05:11:00,
2013-02-18 22:16:00,46.8,10.9,29.90,South,180,0.0,0.0,23,0.00,,,0.00,0,Wunderground v.1.15,2013-02-19 05:16:00,
2013-02-18 22:21:00,46.8,10.9,29.90,South,180,0.0,0.0,23,0.00,,,0.00,0,Wunderground v.1.15,2013-02-19 05:21:00,
2013-02-18 22:26:00,46.9,11.0,29.90,South,180,0.0,0.0,23,0.00,,,0.00,0,Wunderground v.1.15,2013-02-19 05:26:00,
2013-02-18 22:31:00,46.8,10.9,29.90,South,180,0.0,0.0,23,0.00,,,0.00,0,Wunderground v.1.15,2013-02-19 05:31:00,
2013-02-18 22:41:00,45.4,10.7,29.91,South,180,0.0,0.0,24,0.00,,,0.00,0,Wunderground v.1.15,2013-02-19 05:41:00,
2013-02-18 22:46:00,46.4,10.5,29.91,South,180,0.0,0.0,23,0.00,,,0.00,0,Wunderground v.1.15,2013-02-19 05:46:00,
2013-02-18 22:56:00,46.5,10.6,29.90,South,180,0.0,0.0,23,0.00,,,0.00,0,Wunderground v.1.15,2013-02-19 05:56:00,
2013-02-18 23:06:00,45.5,10.7,29.90,South,180,0.0,0.0,24,0.00,,,0.00,0,Wunderground v.1.15,2013-02-19 06:06:00,
2013-02-18 23:16:00,44.7,11.0,29.88,ENE,78,2.0,2.0,25,0.00,,,0.00,0,Wunderground v.1.15,2013-02-19 06:16:00,
2013-02-18 23:21:00,45.0,11.2,29.88,ENE,78,2.0,2.0,25,0.00,,,0.00,0,Wunderground v.1.15,2013-02-19 06:21:00,
2013-02-18 23:26:00,44.4,11.6,29.89,East,80,1.0,2.0,26,0.00,,,0.00,0,Wunderground v.1.15,2013-02-19 06:26:00,
2013-02-18 23:31:00,44.9,11.1,29.88,East,80,1.0,1.0,25,0.00,,,0.00,0,Wunderground v.1.15,2013-02-19 06:31:00,
2013-02-18 23:41:00,45.3,11.5,29.88,East,97,1.0,2.0,25,0.00,,,0.00,0,Wunderground v.1.15,2013-02-19 06:41:00,
2013-02-18 23:46:00,44.9,11.1,29.88,East,92,1.0,2.0,25,0.00,,,0.00,0,Wunderground v.1.15,2013-02-19 06:46:00,
2013-02-18 23:51:00,43.8,11.1,29.89,East,92,1.0,1.0,26,0.00,,,0.00,0,Wunderground v.1.15,2013-02-19 06:51:00,
2013-02-18 23:56:00,43.1,11.3,29.89,East,92,0.0,1.0,27,0.00,,,0.00,0,Wunderground v.1.15,2013-02-19 06:56:00,